sensor_id;sensor_type;location;lat;lon;timestamp;temperature;humidity
27803;DHT22;15182;48.174;11.562;2022-07-12T00:00:26;23.90;75.20
27803;DHT22;15182;48.174;11.562;2022-07-12T00:02:57;23.80;75.20
27803;DHT22;15182;48.174;11.562;2022-07-12T00:05:29;23.80;75.30
27803;DHT22;15182;48.174;11.562;2022-07-12T00:08:02;23.80;75.40
27803;DHT22;15182;48.174;11.562;2022-07-12T00:10:36;23.70;75.50
27803;DHT22;15182;48.174;11.562;2022-07-12T00:13:07;23.70;75.60
27803;DHT22;15182;48.174;11.562;2022-07-12T00:15:39;23.70;75.60
27803;DHT22;15182;48.174;11.562;2022-07-12T00:18:10;23.70;75.70
27803;DHT22;15182;48.174;11.562;2022-07-12T00:20:42;23.60;75.80
27803;DHT22;15182;48.174;11.562;2022-07-12T00:23:13;23.60;76.00
27803;DHT22;15182;48.174;11.562;2022-07-12T00:25:46;23.60;76.20
27803;DHT22;15182;48.174;11.562;2022-07-12T00:28:17;23.50;76.20
27803;DHT22;15182;48.174;11.562;2022-07-12T00:30:49;23.50;76.20
27803;DHT22;15182;48.174;11.562;2022-07-12T00:33:20;23.40;77.10
27803;DHT22;15182;48.174;11.562;2022-07-12T00:35:51;23.40;76.40
27803;DHT22;15182;48.174;11.562;2022-07-12T00:38:23;23.40;76.50
27803;DHT22;15182;48.174;11.562;2022-07-12T00:40:56;23.40;76.50
27803;DHT22;15182;48.174;11.562;2022-07-12T00:43:28;23.40;76.70
27803;DHT22;15182;48.174;11.562;2022-07-12T00:45:59;23.30;76.60
27803;DHT22;15182;48.174;11.562;2022-07-12T00:48:30;23.30;76.70
27803;DHT22;15182;48.174;11.562;2022-07-12T00:51:03;23.30;76.80
27803;DHT22;15182;48.174;11.562;2022-07-12T00:53:35;23.30;76.90
27803;DHT22;15182;48.174;11.562;2022-07-12T00:56:09;23.20;77.00
27803;DHT22;15182;48.174;11.562;2022-07-12T00:58:41;23.20;77.10
27803;DHT22;15182;48.174;11.562;2022-07-12T01:01:13;23.20;77.20
27803;DHT22;15182;48.174;11.562;2022-07-12T01:03:44;23.10;77.30
27803;DHT22;15182;48.174;11.562;2022-07-12T01:06:16;23.10;77.30
27803;DHT22;15182;48.174;11.562;2022-07-12T01:08:48;23.10;77.40
27803;DHT22;15182;48.174;11.562;2022-07-12T01:11:21;23.10;77.50
27803;DHT22;15182;48.174;11.562;2022-07-12T01:13:53;23.10;77.60
27803;DHT22;15182;48.174;11.562;2022-07-12T01:16:25;23.00;77.90
27803;DHT22;15182;48.174;11.562;2022-07-12T01:18:57;23.00;77.80
27803;DHT22;15182;48.174;11.562;2022-07-12T01:21:29;23.00;78.00
27803;DHT22;15182;48.174;11.562;2022-07-12T01:24:06;23.00;78.10
27803;DHT22;15182;48.174;11.562;2022-07-12T01:26:38;22.90;78.40
27803;DHT22;15182;48.174;11.562;2022-07-12T01:29:10;22.90;78.30
27803;DHT22;15182;48.174;11.562;2022-07-12T01:31:41;22.90;78.40
27803;DHT22;15182;48.174;11.562;2022-07-12T01:34:13;22.90;78.40
27803;DHT22;15182;48.174;11.562;2022-07-12T01:36:45;22.80;78.50
27803;DHT22;15182;48.174;11.562;2022-07-12T01:39:18;22.80;78.50
27803;DHT22;15182;48.174;11.562;2022-07-12T01:41:49;22.80;78.80
27803;DHT22;15182;48.174;11.562;2022-07-12T01:44:21;22.80;78.80
27803;DHT22;15182;48.174;11.562;2022-07-12T01:46:52;22.80;78.80
27803;DHT22;15182;48.174;11.562;2022-07-12T01:49:24;22.80;79.00
27803;DHT22;15182;48.174;11.562;2022-07-12T01:51:56;22.80;79.10
27803;DHT22;15182;48.174;11.562;2022-07-12T01:54:30;22.80;79.30
27803;DHT22;15182;48.174;11.562;2022-07-12T01:57:01;22.70;79.30
27803;DHT22;15182;48.174;11.562;2022-07-12T01:59:33;22.70;79.20
27803;DHT22;15182;48.174;11.562;2022-07-12T02:02:05;22.70;79.30
27803;DHT22;15182;48.174;11.562;2022-07-12T02:04:37;22.70;79.60
27803;DHT22;15182;48.174;11.562;2022-07-12T02:07:09;22.60;79.60
27803;DHT22;15182;48.174;11.562;2022-07-12T02:09:42;22.60;79.50
27803;DHT22;15182;48.174;11.562;2022-07-12T02:12:14;22.60;79.80
27803;DHT22;15182;48.174;11.562;2022-07-12T02:14:45;22.60;79.90
27803;DHT22;15182;48.174;11.562;2022-07-12T02:17:16;22.60;80.00
27803;DHT22;15182;48.174;11.562;2022-07-12T02:19:48;22.50;80.40
27803;DHT22;15182;48.174;11.562;2022-07-12T02:22:19;22.40;80.10
27803;DHT22;15182;48.174;11.562;2022-07-12T02:24:52;22.40;80.30
27803;DHT22;15182;48.174;11.562;2022-07-12T02:27:23;22.40;80.50
27803;DHT22;15182;48.174;11.562;2022-07-12T02:29:55;22.40;80.50
27803;DHT22;15182;48.174;11.562;2022-07-12T02:32:26;22.30;80.50
27803;DHT22;15182;48.174;11.562;2022-07-12T02:34:58;22.30;80.60
27803;DHT22;15182;48.174;11.562;2022-07-12T02:37:29;22.30;80.80
27803;DHT22;15182;48.174;11.562;2022-07-12T02:40:01;22.20;80.90
27803;DHT22;15182;48.174;11.562;2022-07-12T02:42:52;22.20;81.20
27803;DHT22;15182;48.174;11.562;2022-07-12T02:45:23;22.20;81.30
27803;DHT22;15182;48.174;11.562;2022-07-12T02:47:54;22.20;81.50
27803;DHT22;15182;48.174;11.562;2022-07-12T02:50:26;22.20;81.60
27803;DHT22;15182;48.174;11.562;2022-07-12T02:52:57;22.20;81.80
27803;DHT22;15182;48.174;11.562;2022-07-12T02:55:29;22.10;81.80
27803;DHT22;15182;48.174;11.562;2022-07-12T02:58:01;22.10;82.00
27803;DHT22;15182;48.174;11.562;2022-07-12T03:00:34;22.10;82.20
27803;DHT22;15182;48.174;11.562;2022-07-12T03:03:05;22.10;82.10
27803;DHT22;15182;48.174;11.562;2022-07-12T03:05:36;22.00;82.10
27803;DHT22;15182;48.174;11.562;2022-07-12T03:08:09;22.00;82.10
27803;DHT22;15182;48.174;11.562;2022-07-12T03:10:42;22.00;82.40
27803;DHT22;15182;48.174;11.562;2022-07-12T03:13:13;22.00;82.50
27803;DHT22;15182;48.174;11.562;2022-07-12T03:15:45;21.90;82.40
27803;DHT22;15182;48.174;11.562;2022-07-12T03:18:17;21.90;82.60
27803;DHT22;15182;48.174;11.562;2022-07-12T03:20:49;21.90;82.70
27803;DHT22;15182;48.174;11.562;2022-07-12T03:23:20;21.90;82.80
27803;DHT22;15182;48.174;11.562;2022-07-12T03:25:53;21.80;82.80
27803;DHT22;15182;48.174;11.562;2022-07-12T03:28:26;21.80;83.00
27803;DHT22;15182;48.174;11.562;2022-07-12T03:30:58;21.80;83.20
27803;DHT22;15182;48.174;11.562;2022-07-12T03:33:29;21.80;83.10
27803;DHT22;15182;48.174;11.562;2022-07-12T03:36:01;21.80;84.00
27803;DHT22;15182;48.174;11.562;2022-07-12T03:38:34;21.70;83.10
27803;DHT22;15182;48.174;11.562;2022-07-12T03:41:09;21.70;83.10
27803;DHT22;15182;48.174;11.562;2022-07-12T03:43:40;21.70;83.40
27803;DHT22;15182;48.174;11.562;2022-07-12T03:46:11;21.70;84.30
27803;DHT22;15182;48.174;11.562;2022-07-12T03:48:43;21.60;83.30
27803;DHT22;15182;48.174;11.562;2022-07-12T03:51:14;21.70;83.60
27803;DHT22;15182;48.174;11.562;2022-07-12T03:53:45;21.60;83.60
27803;DHT22;15182;48.174;11.562;2022-07-12T03:56:18;21.60;83.60
27803;DHT22;15182;48.174;11.562;2022-07-12T03:59:03;21.60;83.90
27803;DHT22;15182;48.174;11.562;2022-07-12T04:01:35;21.60;83.90
27803;DHT22;15182;48.174;11.562;2022-07-12T04:04:06;21.60;84.00
27803;DHT22;15182;48.174;11.562;2022-07-12T04:06:37;21.50;84.10
27803;DHT22;15182;48.174;11.562;2022-07-12T04:09:09;21.50;84.20
27803;DHT22;15182;48.174;11.562;2022-07-12T04:11:42;21.50;84.20
27803;DHT22;15182;48.174;11.562;2022-07-12T04:14:13;21.50;84.40
27803;DHT22;15182;48.174;11.562;2022-07-12T04:16:45;21.50;84.40
27803;DHT22;15182;48.174;11.562;2022-07-12T04:19:16;21.50;84.50
27803;DHT22;15182;48.174;11.562;2022-07-12T04:21:48;21.50;84.60
27803;DHT22;15182;48.174;11.562;2022-07-12T04:24:19;21.50;84.50
27803;DHT22;15182;48.174;11.562;2022-07-12T04:26:52;21.50;84.60
27803;DHT22;15182;48.174;11.562;2022-07-12T04:29:23;21.50;84.70
27803;DHT22;15182;48.174;11.562;2022-07-12T04:31:55;21.50;84.60
27803;DHT22;15182;48.174;11.562;2022-07-12T04:34:26;21.50;84.70
27803;DHT22;15182;48.174;11.562;2022-07-12T04:36:56;21.50;84.80
27803;DHT22;15182;48.174;11.562;2022-07-12T04:39:29;21.40;84.60
27803;DHT22;15182;48.174;11.562;2022-07-12T04:42:01;21.40;84.90
27803;DHT22;15182;48.174;11.562;2022-07-12T04:44:33;21.40;85.00
27803;DHT22;15182;48.174;11.562;2022-07-12T04:47:05;21.40;84.90
27803;DHT22;15182;48.174;11.562;2022-07-12T04:49:37;21.40;85.10
27803;DHT22;15182;48.174;11.562;2022-07-12T04:52:10;21.40;85.10
27803;DHT22;15182;48.174;11.562;2022-07-12T04:54:41;21.40;85.50
27803;DHT22;15182;48.174;11.562;2022-07-12T04:57:14;21.30;85.30
27803;DHT22;15182;48.174;11.562;2022-07-12T04:59:46;21.30;85.70
27803;DHT22;15182;48.174;11.562;2022-07-12T05:02:17;21.40;86.60
27803;DHT22;15182;48.174;11.562;2022-07-12T05:04:48;21.40;85.80
27803;DHT22;15182;48.174;11.562;2022-07-12T05:07:20;21.40;85.70
27803;DHT22;15182;48.174;11.562;2022-07-12T05:09:51;21.40;85.80
27803;DHT22;15182;48.174;11.562;2022-07-12T05:12:24;21.40;85.90
27803;DHT22;15182;48.174;11.562;2022-07-12T05:14:55;21.40;86.10
27803;DHT22;15182;48.174;11.562;2022-07-12T05:17:27;21.40;86.00
27803;DHT22;15182;48.174;11.562;2022-07-12T05:19:58;21.40;85.90
27803;DHT22;15182;48.174;11.562;2022-07-12T05:22:29;21.40;85.90
27803;DHT22;15182;48.174;11.562;2022-07-12T05:25:01;21.50;86.10
27803;DHT22;15182;48.174;11.562;2022-07-12T05:27:34;21.50;86.20
27803;DHT22;15182;48.174;11.562;2022-07-12T05:30:05;21.50;86.40
27803;DHT22;15182;48.174;11.562;2022-07-12T05:32:39;21.50;86.20
27803;DHT22;15182;48.174;11.562;2022-07-12T05:35:12;21.50;86.40
27803;DHT22;15182;48.174;11.562;2022-07-12T05:37:44;21.60;86.20
27803;DHT22;15182;48.174;11.562;2022-07-12T05:40:17;21.60;86.10
27803;DHT22;15182;48.174;11.562;2022-07-12T05:42:50;21.60;86.20
27803;DHT22;15182;48.174;11.562;2022-07-12T05:45:23;21.70;86.10
27803;DHT22;15182;48.174;11.562;2022-07-12T05:47:54;21.70;86.10
27803;DHT22;15182;48.174;11.562;2022-07-12T05:50:26;21.70;86.00
27803;DHT22;15182;48.174;11.562;2022-07-12T05:52:58;21.70;85.90
27803;DHT22;15182;48.174;11.562;2022-07-12T05:55:58;21.70;86.00
27803;DHT22;15182;48.174;11.562;2022-07-12T05:58:31;21.80;86.00
27803;DHT22;15182;48.174;11.562;2022-07-12T06:01:03;21.80;86.10
27803;DHT22;15182;48.174;11.562;2022-07-12T06:03:34;21.80;85.90
27803;DHT22;15182;48.174;11.562;2022-07-12T06:06:05;21.80;85.80
27803;DHT22;15182;48.174;11.562;2022-07-12T06:08:37;21.90;85.80
27803;DHT22;15182;48.174;11.562;2022-07-12T06:11:09;21.90;85.70
27803;DHT22;15182;48.174;11.562;2022-07-12T06:13:41;21.90;85.60
27803;DHT22;15182;48.174;11.562;2022-07-12T06:16:13;21.90;85.80
27803;DHT22;15182;48.174;11.562;2022-07-12T06:18:46;22.00;85.60
27803;DHT22;15182;48.174;11.562;2022-07-12T06:21:17;22.00;85.60
27803;DHT22;15182;48.174;11.562;2022-07-12T06:23:49;22.00;85.30
27803;DHT22;15182;48.174;11.562;2022-07-12T06:26:21;22.10;85.40
27803;DHT22;15182;48.174;11.562;2022-07-12T06:28:53;22.20;85.40
27803;DHT22;15182;48.174;11.562;2022-07-12T06:31:25;22.20;85.20
27803;DHT22;15182;48.174;11.562;2022-07-12T06:33:56;22.20;85.10
27803;DHT22;15182;48.174;11.562;2022-07-12T06:36:27;22.30;85.20
27803;DHT22;15182;48.174;11.562;2022-07-12T06:38:58;22.30;85.00
27803;DHT22;15182;48.174;11.562;2022-07-12T06:41:30;22.40;84.90
27803;DHT22;15182;48.174;11.562;2022-07-12T06:44:02;22.50;84.90
27803;DHT22;15182;48.174;11.562;2022-07-12T06:46:35;22.60;84.60
27803;DHT22;15182;48.174;11.562;2022-07-12T06:49:06;22.70;84.60
27803;DHT22;15182;48.174;11.562;2022-07-12T06:51:38;22.80;84.40
27803;DHT22;15182;48.174;11.562;2022-07-12T06:54:09;22.90;84.00
27803;DHT22;15182;48.174;11.562;2022-07-12T06:56:40;23.00;83.70
27803;DHT22;15182;48.174;11.562;2022-07-12T06:59:13;23.10;83.60
27803;DHT22;15182;48.174;11.562;2022-07-12T07:01:45;23.20;83.40
27803;DHT22;15182;48.174;11.562;2022-07-12T07:04:17;23.30;83.30
27803;DHT22;15182;48.174;11.562;2022-07-12T07:06:49;23.40;83.10
27803;DHT22;15182;48.174;11.562;2022-07-12T07:09:20;23.50;82.80
27803;DHT22;15182;48.174;11.562;2022-07-12T07:11:52;23.60;82.50
27803;DHT22;15182;48.174;11.562;2022-07-12T07:14:25;23.70;82.40
27803;DHT22;15182;48.174;11.562;2022-07-12T07:16:56;23.90;82.20
27803;DHT22;15182;48.174;11.562;2022-07-12T07:19:28;24.00;82.20
27803;DHT22;15182;48.174;11.562;2022-07-12T07:21:59;24.10;81.90
27803;DHT22;15182;48.174;11.562;2022-07-12T07:24:30;24.20;81.90
27803;DHT22;15182;48.174;11.562;2022-07-12T07:27:02;24.30;81.30
27803;DHT22;15182;48.174;11.562;2022-07-12T07:29:36;24.40;81.10
27803;DHT22;15182;48.174;11.562;2022-07-12T07:32:25;24.60;81.00
27803;DHT22;15182;48.174;11.562;2022-07-12T07:34:56;24.70;80.50
27803;DHT22;15182;48.174;11.562;2022-07-12T07:37:27;24.80;80.10
27803;DHT22;15182;48.174;11.562;2022-07-12T07:39:59;24.90;80.10
27803;DHT22;15182;48.174;11.562;2022-07-12T07:42:31;25.00;79.70
27803;DHT22;15182;48.174;11.562;2022-07-12T07:45:04;25.10;79.40
27803;DHT22;15182;48.174;11.562;2022-07-12T07:47:43;25.20;78.70
27803;DHT22;15182;48.174;11.562;2022-07-12T07:50:13;25.30;78.60
27803;DHT22;15182;48.174;11.562;2022-07-12T07:52:45;25.40;79.00
27803;DHT22;15182;48.174;11.562;2022-07-12T07:55:19;25.50;78.40
27803;DHT22;15182;48.174;11.562;2022-07-12T07:57:51;25.50;78.20
27803;DHT22;15182;48.174;11.562;2022-07-12T08:00:24;25.70;78.20
27803;DHT22;15182;48.174;11.562;2022-07-12T08:02:56;25.70;78.30
27803;DHT22;15182;48.174;11.562;2022-07-12T08:05:27;25.80;78.10
27803;DHT22;15182;48.174;11.562;2022-07-12T08:07:58;25.90;78.20
27803;DHT22;15182;48.174;11.562;2022-07-12T08:10:29;25.90;79.00
27803;DHT22;15182;48.174;11.562;2022-07-12T08:13:01;26.10;77.90
27803;DHT22;15182;48.174;11.562;2022-07-12T08:15:34;26.10;77.70
27803;DHT22;15182;48.174;11.562;2022-07-12T08:18:05;26.20;77.20
27803;DHT22;15182;48.174;11.562;2022-07-12T08:20:37;26.30;76.90
27803;DHT22;15182;48.174;11.562;2022-07-12T08:23:08;26.40;76.80
27803;DHT22;15182;48.174;11.562;2022-07-12T08:25:39;26.50;76.40
27803;DHT22;15182;48.174;11.562;2022-07-12T08:28:11;26.60;76.00
27803;DHT22;15182;48.174;11.562;2022-07-12T08:30:44;26.60;75.50
27803;DHT22;15182;48.174;11.562;2022-07-12T08:33:16;26.70;74.60
27803;DHT22;15182;48.174;11.562;2022-07-12T08:35:47;26.70;74.50
27803;DHT22;15182;48.174;11.562;2022-07-12T08:38:18;26.80;74.60
27803;DHT22;15182;48.174;11.562;2022-07-12T08:40:50;26.80;74.00
27803;DHT22;15182;48.174;11.562;2022-07-12T08:43:21;26.80;74.00
27803;DHT22;15182;48.174;11.562;2022-07-12T08:45:53;26.70;73.70
27803;DHT22;15182;48.174;11.562;2022-07-12T08:48:24;26.70;73.50
27803;DHT22;15182;48.174;11.562;2022-07-12T08:51:03;26.60;73.30
27803;DHT22;15182;48.174;11.562;2022-07-12T08:53:36;26.70;72.80
27803;DHT22;15182;48.174;11.562;2022-07-12T08:56:29;26.60;73.30
27803;DHT22;15182;48.174;11.562;2022-07-12T08:59:12;26.60;73.20
27803;DHT22;15182;48.174;11.562;2022-07-12T09:01:45;26.60;72.80
27803;DHT22;15182;48.174;11.562;2022-07-12T09:04:21;26.60;72.90
27803;DHT22;15182;48.174;11.562;2022-07-12T09:06:55;26.60;73.80
27803;DHT22;15182;48.174;11.562;2022-07-12T09:09:30;26.60;73.00
27803;DHT22;15182;48.174;11.562;2022-07-12T09:12:03;26.70;72.30
27803;DHT22;15182;48.174;11.562;2022-07-12T09:14:36;26.80;71.50
27803;DHT22;15182;48.174;11.562;2022-07-12T09:17:10;26.80;71.80
27803;DHT22;15182;48.174;11.562;2022-07-12T09:19:42;26.90;71.90
27803;DHT22;15182;48.174;11.562;2022-07-12T09:22:23;26.90;71.80
27803;DHT22;15182;48.174;11.562;2022-07-12T09:24:54;26.90;71.40
27803;DHT22;15182;48.174;11.562;2022-07-12T09:27:28;26.90;71.30
27803;DHT22;15182;48.174;11.562;2022-07-12T09:29:59;26.90;71.00
27803;DHT22;15182;48.174;11.562;2022-07-12T09:32:32;26.90;71.10
27803;DHT22;15182;48.174;11.562;2022-07-12T09:35:22;26.90;71.30
27803;DHT22;15182;48.174;11.562;2022-07-12T09:38:13;26.90;71.20
27803;DHT22;15182;48.174;11.562;2022-07-12T09:40:44;27.00;71.20
27803;DHT22;15182;48.174;11.562;2022-07-12T09:43:18;27.00;70.40
27803;DHT22;15182;48.174;11.562;2022-07-12T09:45:50;27.10;70.10
27803;DHT22;15182;48.174;11.562;2022-07-12T09:48:22;27.00;70.20
27803;DHT22;15182;48.174;11.562;2022-07-12T09:50:57;27.00;70.20
27803;DHT22;15182;48.174;11.562;2022-07-12T09:53:31;26.90;69.70
27803;DHT22;15182;48.174;11.562;2022-07-12T09:56:10;26.90;70.00
27803;DHT22;15182;48.174;11.562;2022-07-12T09:58:51;26.80;70.30
27803;DHT22;15182;48.174;11.562;2022-07-12T10:01:24;26.80;70.20
27803;DHT22;15182;48.174;11.562;2022-07-12T10:03:58;26.80;70.30
27803;DHT22;15182;48.174;11.562;2022-07-12T10:06:31;26.80;69.90
27803;DHT22;15182;48.174;11.562;2022-07-12T10:09:03;26.90;70.30
27803;DHT22;15182;48.174;11.562;2022-07-12T10:11:39;26.80;70.20
27803;DHT22;15182;48.174;11.562;2022-07-12T10:14:13;26.90;70.20
27803;DHT22;15182;48.174;11.562;2022-07-12T10:16:49;26.90;70.50
27803;DHT22;15182;48.174;11.562;2022-07-12T10:19:26;27.00;70.50
27803;DHT22;15182;48.174;11.562;2022-07-12T10:21:59;27.10;69.40
27803;DHT22;15182;48.174;11.562;2022-07-12T10:24:46;27.30;69.30
27803;DHT22;15182;48.174;11.562;2022-07-12T10:27:34;27.40;68.60
27803;DHT22;15182;48.174;11.562;2022-07-12T10:30:16;27.40;68.20
27803;DHT22;15182;48.174;11.562;2022-07-12T10:32:54;27.40;68.00
27803;DHT22;15182;48.174;11.562;2022-07-12T10:35:28;27.40;67.80
27803;DHT22;15182;48.174;11.562;2022-07-12T10:38:20;27.40;68.30
27803;DHT22;15182;48.174;11.562;2022-07-12T10:40:53;27.50;67.60
27803;DHT22;15182;48.174;11.562;2022-07-12T10:43:29;27.70;67.70
27803;DHT22;15182;48.174;11.562;2022-07-12T10:46:24;27.90;66.90
27803;DHT22;15182;48.174;11.562;2022-07-12T10:49:24;28.00;66.80
27803;DHT22;15182;48.174;11.562;2022-07-12T10:52:26;28.00;66.50
27803;DHT22;15182;48.174;11.562;2022-07-12T10:55:18;28.00;66.40
27803;DHT22;15182;48.174;11.562;2022-07-12T10:57:50;28.00;66.00
27803;DHT22;15182;48.174;11.562;2022-07-12T11:00:22;28.00;66.50
27803;DHT22;15182;48.174;11.562;2022-07-12T11:02:55;28.10;66.60
27803;DHT22;15182;48.174;11.562;2022-07-12T11:05:32;28.10;65.80
27803;DHT22;15182;48.174;11.562;2022-07-12T11:08:04;28.10;65.40
27803;DHT22;15182;48.174;11.562;2022-07-12T11:10:36;28.10;65.40
27803;DHT22;15182;48.174;11.562;2022-07-12T11:13:21;28.10;64.90
27803;DHT22;15182;48.174;11.562;2022-07-12T11:15:59;28.20;65.10
27803;DHT22;15182;48.174;11.562;2022-07-12T11:18:33;28.40;65.30
27803;DHT22;15182;48.174;11.562;2022-07-12T11:21:07;28.60;64.50
27803;DHT22;15182;48.174;11.562;2022-07-12T11:23:40;28.80;64.50
27803;DHT22;15182;48.174;11.562;2022-07-12T11:26:13;28.90;63.20
27803;DHT22;15182;48.174;11.562;2022-07-12T11:28:46;28.90;63.00
27803;DHT22;15182;48.174;11.562;2022-07-12T11:31:18;28.90;63.50
27803;DHT22;15182;48.174;11.562;2022-07-12T11:33:52;28.80;63.10
27803;DHT22;15182;48.174;11.562;2022-07-12T11:36:27;28.70;63.20
27803;DHT22;15182;48.174;11.562;2022-07-12T11:39:00;28.60;63.10
27803;DHT22;15182;48.174;11.562;2022-07-12T11:41:31;28.50;63.20
27803;DHT22;15182;48.174;11.562;2022-07-12T11:44:02;28.50;63.00
27803;DHT22;15182;48.174;11.562;2022-07-12T11:46:35;28.40;63.30
27803;DHT22;15182;48.174;11.562;2022-07-12T11:49:10;28.50;63.20
27803;DHT22;15182;48.174;11.562;2022-07-12T11:51:46;28.60;63.40
27803;DHT22;15182;48.174;11.562;2022-07-12T11:54:17;28.80;63.60
27803;DHT22;15182;48.174;11.562;2022-07-12T11:57:05;29.00;62.40
27803;DHT22;15182;48.174;11.562;2022-07-12T11:59:38;29.30;61.60
27803;DHT22;15182;48.174;11.562;2022-07-12T12:02:12;29.40;61.60
27803;DHT22;15182;48.174;11.562;2022-07-12T12:04:49;29.50;61.20
27803;DHT22;15182;48.174;11.562;2022-07-12T12:07:24;29.50;60.60
27803;DHT22;15182;48.174;11.562;2022-07-12T12:10:01;29.50;60.70
27803;DHT22;15182;48.174;11.562;2022-07-12T12:12:39;29.50;60.10
27803;DHT22;15182;48.174;11.562;2022-07-12T12:15:14;29.60;61.50
27803;DHT22;15182;48.174;11.562;2022-07-12T12:17:53;29.60;60.60
27803;DHT22;15182;48.174;11.562;2022-07-12T12:20:29;29.70;59.70
27803;DHT22;15182;48.174;11.562;2022-07-12T12:23:02;29.90;59.80
27803;DHT22;15182;48.174;11.562;2022-07-12T12:25:35;30.10;59.70
27803;DHT22;15182;48.174;11.562;2022-07-12T12:28:06;30.20;59.30
27803;DHT22;15182;48.174;11.562;2022-07-12T12:30:49;30.30;59.50
27803;DHT22;15182;48.174;11.562;2022-07-12T12:33:37;30.50;58.80
27803;DHT22;15182;48.174;11.562;2022-07-12T12:36:19;30.60;58.50
27803;DHT22;15182;48.174;11.562;2022-07-12T12:38:52;30.70;58.40
27803;DHT22;15182;48.174;11.562;2022-07-12T12:41:27;30.70;58.50
27803;DHT22;15182;48.174;11.562;2022-07-12T12:44:01;30.80;59.00
27803;DHT22;15182;48.174;11.562;2022-07-12T12:46:51;30.90;58.10
27803;DHT22;15182;48.174;11.562;2022-07-12T12:49:48;31.00;57.80
27803;DHT22;15182;48.174;11.562;2022-07-12T12:52:23;31.10;57.60
27803;DHT22;15182;48.174;11.562;2022-07-12T12:54:57;31.00;57.50
27803;DHT22;15182;48.174;11.562;2022-07-12T12:57:28;31.00;57.60
27803;DHT22;15182;48.174;11.562;2022-07-12T12:59:59;30.90;58.00
27803;DHT22;15182;48.174;11.562;2022-07-12T13:02:30;31.00;57.90
27803;DHT22;15182;48.174;11.562;2022-07-12T13:05:02;31.00;57.60
27803;DHT22;15182;48.174;11.562;2022-07-12T13:07:34;31.00;57.80
27803;DHT22;15182;48.174;11.562;2022-07-12T13:10:08;31.00;57.50
27803;DHT22;15182;48.174;11.562;2022-07-12T13:12:39;31.10;57.50
27803;DHT22;15182;48.174;11.562;2022-07-12T13:15:11;31.10;57.30
27803;DHT22;15182;48.174;11.562;2022-07-12T13:17:43;31.30;57.00
27803;DHT22;15182;48.174;11.562;2022-07-12T13:20:16;31.30;56.80
27803;DHT22;15182;48.174;11.562;2022-07-12T13:22:49;31.50;56.50
27803;DHT22;15182;48.174;11.562;2022-07-12T13:25:20;31.60;56.50
27803;DHT22;15182;48.174;11.562;2022-07-12T13:27:53;31.70;56.40
27803;DHT22;15182;48.174;11.562;2022-07-12T13:30:25;31.70;56.00
27803;DHT22;15182;48.174;11.562;2022-07-12T13:32:56;31.70;55.70
27803;DHT22;15182;48.174;11.562;2022-07-12T13:35:28;31.80;55.80
27803;DHT22;15182;48.174;11.562;2022-07-12T13:38:01;31.80;55.70
27803;DHT22;15182;48.174;11.562;2022-07-12T13:40:33;31.80;55.40
27803;DHT22;15182;48.174;11.562;2022-07-12T13:43:04;31.80;55.20
27803;DHT22;15182;48.174;11.562;2022-07-12T13:45:35;31.80;55.20
27803;DHT22;15182;48.174;11.562;2022-07-12T13:48:07;31.80;55.10
27803;DHT22;15182;48.174;11.562;2022-07-12T13:50:39;31.80;55.30
27803;DHT22;15182;48.174;11.562;2022-07-12T13:53:11;31.80;55.40
27803;DHT22;15182;48.174;11.562;2022-07-12T13:55:43;31.70;54.90
27803;DHT22;15182;48.174;11.562;2022-07-12T13:58:15;31.60;55.00
27803;DHT22;15182;48.174;11.562;2022-07-12T14:00:46;31.60;55.20
27803;DHT22;15182;48.174;11.562;2022-07-12T14:03:17;31.60;54.90
27803;DHT22;15182;48.174;11.562;2022-07-12T14:05:48;31.60;54.60
27803;DHT22;15182;48.174;11.562;2022-07-12T14:08:21;31.50;54.30
27803;DHT22;15182;48.174;11.562;2022-07-12T14:10:53;31.50;54.10
27803;DHT22;15182;48.174;11.562;2022-07-12T14:13:24;31.40;54.40
27803;DHT22;15182;48.174;11.562;2022-07-12T14:15:55;31.30;54.20
27803;DHT22;15182;48.174;11.562;2022-07-12T14:18:27;31.20;54.30
27803;DHT22;15182;48.174;11.562;2022-07-12T14:20:58;31.10;54.30
27803;DHT22;15182;48.174;11.562;2022-07-12T14:23:31;31.00;54.70
27803;DHT22;15182;48.174;11.562;2022-07-12T14:26:04;31.00;54.90
27803;DHT22;15182;48.174;11.562;2022-07-12T14:28:36;30.90;54.60
27803;DHT22;15182;48.174;11.562;2022-07-12T14:31:07;31.00;55.00
27803;DHT22;15182;48.174;11.562;2022-07-12T14:33:39;30.90;55.00
27803;DHT22;15182;48.174;11.562;2022-07-12T14:36:10;31.00;55.10
27803;DHT22;15182;48.174;11.562;2022-07-12T14:38:43;30.90;55.00
27803;DHT22;15182;48.174;11.562;2022-07-12T14:41:14;30.90;54.70
27803;DHT22;15182;48.174;11.562;2022-07-12T14:43:45;30.90;54.60
27803;DHT22;15182;48.174;11.562;2022-07-12T14:46:17;30.90;54.80
27803;DHT22;15182;48.174;11.562;2022-07-12T14:48:48;30.90;54.80
27803;DHT22;15182;48.174;11.562;2022-07-12T14:51:20;30.90;54.80
27803;DHT22;15182;48.174;11.562;2022-07-12T14:53:53;30.90;55.00
27803;DHT22;15182;48.174;11.562;2022-07-12T14:56:25;31.00;54.60
27803;DHT22;15182;48.174;11.562;2022-07-12T14:58:57;31.00;54.70
27803;DHT22;15182;48.174;11.562;2022-07-12T15:01:28;31.00;54.50
27803;DHT22;15182;48.174;11.562;2022-07-12T15:04:00;31.00;54.50
27803;DHT22;15182;48.174;11.562;2022-07-12T15:06:34;31.00;54.20
27803;DHT22;15182;48.174;11.562;2022-07-12T15:09:06;31.00;53.90
27803;DHT22;15182;48.174;11.562;2022-07-12T15:11:38;31.00;54.10
27803;DHT22;15182;48.174;11.562;2022-07-12T15:14:10;31.00;54.20
27803;DHT22;15182;48.174;11.562;2022-07-12T15:16:42;31.00;54.00
27803;DHT22;15182;48.174;11.562;2022-07-12T15:19:14;31.00;54.00
27803;DHT22;15182;48.174;11.562;2022-07-12T15:21:45;31.00;54.10
27803;DHT22;15182;48.174;11.562;2022-07-12T15:24:18;31.00;54.10
27803;DHT22;15182;48.174;11.562;2022-07-12T15:26:50;30.90;53.80
27803;DHT22;15182;48.174;11.562;2022-07-12T15:29:21;30.90;54.00
27803;DHT22;15182;48.174;11.562;2022-07-12T15:31:52;30.90;54.20
27803;DHT22;15182;48.174;11.562;2022-07-12T15:34:24;30.80;54.10
27803;DHT22;15182;48.174;11.562;2022-07-12T15:36:55;30.80;54.20
27803;DHT22;15182;48.174;11.562;2022-07-12T15:39:28;30.70;54.10
27803;DHT22;15182;48.174;11.562;2022-07-12T15:42:00;30.70;54.00
27803;DHT22;15182;48.174;11.562;2022-07-12T15:44:32;30.60;54.20
27803;DHT22;15182;48.174;11.562;2022-07-12T15:47:04;30.60;54.20
27803;DHT22;15182;48.174;11.562;2022-07-12T15:49:35;30.50;54.20
27803;DHT22;15182;48.174;11.562;2022-07-12T15:52:06;30.50;54.00